Dati Storici

Data ora Umidita' aria (%) Temperatura aria (°C) Rad globale (W/m²) Gonioanemometro (°) Tacoanemometro (m/s) Pioggia (mm)
19-10-2012 07:20 93.6 % 10.309 3.8 147.736 0.172 0
19-10-2012 07:10 93.2 % 10.215 1.98 256.787 -0.001 0
19-10-2012 07:00 93.4 % 10.49 2.147 16.609 0.37 0
19-10-2012 06:50 93.3 % 10.541 2.198 37.519 0.207 0
19-10-2012 06:40 93.1 % 10.576 2.391 29.136 0.549 0
19-10-2012 06:30 93 % 10.758 2.073 26.29 0.616 0
19-10-2012 06:20 92.5 % 10.585 1.714 85.612 -0.003 0
19-10-2012 06:10 92.6 % 10.867 1.342 224.155 -0.002 0
19-10-2012 06:00 92.8 % 11.182 1.663 239.85 0.016 0
19-10-2012 05:50 92.8 % 11.371 1.641 239.72 0.613 0
19-10-2012 05:40 92.8 % 11.526 1.68 243.691 0.502 0
19-10-2012 05:30 93.1 % 11.706 1.628 233.053 0.594 0
19-10-2012 05:20 93.2 % 11.789 1.628 261.442 0.431 0
19-10-2012 05:10 93.2 % 11.8 1.743 254.876 0.245 0
19-10-2012 05:00 93.2 % 11.867 1.872 251.638 0.581 0
19-10-2012 04:50 92.5 % 11.653 1.833 227.283 0.639 0
19-10-2012 04:40 91.9 % 11.553 1.68 202.389 0.347 0
19-10-2012 04:30 91.7 % 11.62 1.846 272.013 0.211 0
19-10-2012 04:20 91.3 % 11.687 1.553 280.283 -0.008 0
19-10-2012 04:10 91.3 % 11.981 1.861 354.353 0.25 0

I dati sono presentati in modo automatico a scopo informativo. In seguito a verifica i dati possono subire modifiche o essere invalidati e non riportati negli archivi definitivi.